Time;durP1;ratioP1;P1;durP2;ratioP2;P2;SDS_P1;SDS_P2;PMS_P1;PMS_P2;Temp;Humidity;BMP_temperature;BMP_pressure;BME280_temperature;BME280_humidity;BME280_pressure;Samples;Min_cycle;Max_cycle;Signal;HPM_P1;HPM_P2
2022/11/13 00:00:13;;;;;;;38.13;25.45;;;;;;;11.01;67.37;101832.97;4972261;28;98179;-83
2022/11/13 00:02:58;;;;;;;36.65;23.77;;;;;;;11.04;67.27;101836.44;4961831;28;97862;-84
2022/11/13 00:05:42;;;;;;;40.58;26.02;;;;;;;11.01;67.37;101830.34;4953057;28;97177;-84
2022/11/13 00:08:26;;;;;;;35.20;25.05;;;;;;;10.96;67.47;101821.66;4960194;28;96837;-84
2022/11/13 00:11:17;;;;;;;34.88;24.08;;;;;;;10.99;67.67;101832.13;4957084;28;96966;-85
2022/11/13 00:14:01;;;;;;;35.38;24.35;;;;;;;10.99;67.60;101826.88;4958818;28;97490;-83
2022/11/13 00:16:45;;;;;;;31.63;21.88;;;;;;;10.95;67.66;101833.06;4956502;28;97193;-84
2022/11/13 00:19:28;;;;;;;32.17;21.85;;;;;;;11.03;67.56;101832.06;4957899;28;97107;-83
2022/11/13 00:22:12;;;;;;;28.65;21.05;;;;;;;10.90;67.43;101819.09;4975724;28;97132;-84
2022/11/13 00:24:56;;;;;;;28.45;19.55;;;;;;;10.97;67.16;101826.03;4974206;28;97474;-84
2022/11/13 00:27:40;;;;;;;31.48;21.77;;;;;;;10.89;67.46;101831.38;4957522;28;97122;-85
2022/11/13 00:30:24;;;;;;;33.30;22.33;;;;;;;10.91;67.47;101836.59;4967663;28;97253;-86
2022/11/13 00:33:08;;;;;;;32.28;21.02;;;;;;;10.98;67.10;101841.75;4950971;28;96796;-84
2022/11/13 00:35:52;;;;;;;31.75;21.50;;;;;;;10.95;67.18;101833.91;4970179;28;97053;-84
2022/11/13 00:38:36;;;;;;;30.70;23.05;;;;;;;10.99;67.13;101834.75;4958224;28;97029;-86
2022/11/13 00:41:21;;;;;;;33.17;22.38;;;;;;;10.74;67.45;101803.50;4968257;28;96735;-84
2022/11/13 00:44:05;;;;;;;38.08;24.10;;;;;;;10.97;67.23;101831.28;4950814;28;97239;-84
2022/11/13 00:46:49;;;;;;;35.38;24.58;;;;;;;10.94;67.55;101831.28;4954487;28;97268;-84
2022/11/13 00:49:33;;;;;;;30.30;22.67;;;;;;;10.95;67.41;101831.28;4956237;28;96974;-84
2022/11/13 00:52:17;;;;;;;36.20;24.75;;;;;;;10.88;67.11;101809.47;4958030;28;96785;-84
2022/11/13 00:55:01;;;;;;;34.28;22.90;;;;;;;10.93;67.13;101822.53;4940668;28;97056;-84
2022/11/13 00:57:45;;;;;;;33.58;22.95;;;;;;;10.94;67.48;101829.56;4966242;28;97224;-84
2022/11/13 01:00:31;;;;;;;33.30;23.70;;;;;;;10.95;67.24;101827.81;4950102;28;97315;-86
2022/11/13 01:03:16;;;;;;;34.13;22.48;;;;;;;10.95;67.35;101812.03;4961211;28;97059;-84
2022/11/13 01:06:00;;;;;;;33.05;24.05;;;;;;;10.94;67.61;101808.53;4974920;28;96804;-85
2022/11/13 01:08:44;;;;;;;31.25;22.95;;;;;;;10.85;67.33;101793.75;4944956;28;97263;-84
2022/11/13 01:11:29;;;;;;;35.33;23.63;;;;;;;10.92;67.11;101797.16;4945152;28;97155;-84
2022/11/13 01:14:13;;;;;;;38.15;24.92;;;;;;;10.93;67.18;101798.03;4957207;28;97025;-84
2022/11/13 01:16:57;;;;;;;38.85;25.52;;;;;;;10.94;67.46;101786.63;4952281;28;97966;-84
2022/11/13 01:19:41;;;;;;;37.88;24.50;;;;;;;10.90;67.21;101793.69;4969702;28;97796;-84
2022/11/13 01:22:25;;;;;;;37.10;23.63;;;;;;;10.78;67.60;101773.69;4957356;28;97108;-83
2022/11/13 01:25:09;;;;;;;40.33;24.95;;;;;;;10.88;67.71;101782.34;4946565;28;97185;-84
2022/11/13 01:27:53;;;;;;;35.20;23.50;;;;;;;10.86;67.77;101789.38;4957536;28;97045;-84
2022/11/13 01:30:38;;;;;;;33.55;23.45;;;;;;;10.88;67.45;101783.22;4974207;28;97147;-86
2022/11/13 01:33:21;;;;;;;30.73;23.05;;;;;;;10.90;67.27;101787.56;4955158;28;97133;-83
2022/11/13 01:36:09;;;;;;;28.75;21.08;;;;;;;10.82;67.69;101783.28;4978979;28;96726;-84
2022/11/13 01:38:53;;;;;;;28.20;20.52;;;;;;;10.85;67.73;101779.75;4967222;28;97205;-84
2022/11/13 01:41:37;;;;;;;31.70;20.35;;;;;;;10.87;67.73;101778.81;4939121;28;97123;-85
2022/11/13 01:44:22;;;;;;;30.30;20.38;;;;;;;10.75;67.31;101773.72;4952641;28;97174;-84
2022/11/13 01:47:07;;;;;;;27.38;21.13;;;;;;;10.81;67.77;101776.28;4974318;28;97548;-84
2022/11/13 01:49:54;;;;;;;31.80;21.27;;;;;;;10.77;67.75;101779.84;4974026;28;96954;-83
2022/11/13 01:52:39;;;;;;;25.10;19.42;;;;;;;10.80;67.12;101768.44;4970300;28;97259;-85
2022/11/13 01:55:23;;;;;;;28.05;19.95;;;;;;;10.77;67.36;101761.44;4974107;28;96949;-84
2022/11/13 01:58:09;;;;;;;32.97;21.02;;;;;;;10.75;67.31;101754.47;4956611;28;96805;-85
2022/11/13 02:00:53;;;;;;;26.35;19.83;;;;;;;10.70;67.32;101743.16;4963851;28;96838;-84
2022/11/13 02:03:37;;;;;;;35.25;19.70;;;;;;;10.75;67.18;101752.72;4956922;28;97387;-84
2022/11/13 02:06:21;;;;;;;27.75;19.33;;;;;;;10.75;67.18;101755.34;4957131;28;97051;-84
2022/11/13 02:09:05;;;;;;;29.25;20.50;;;;;;;10.78;66.94;101749.19;4970852;28;97332;-85
2022/11/13 02:11:50;;;;;;;25.65;18.80;;;;;;;10.63;66.87;101732.72;4952051;28;97448;-83
2022/11/13 02:14:35;;;;;;;21.95;18.13;;;;;;;10.74;67.24;101751.00;4973259;28;97771;-84
2022/11/13 02:17:31;;;;;;;24.27;17.02;;;;;;;10.80;66.73;101760.56;4947171;28;97060;-84
2022/11/13 02:20:20;;;;;;;22.42;16.15;;;;;;;10.75;67.13;101762.34;4954107;28;96838;-84
2022/11/13 02:23:07;;;;;;;23.67;16.42;;;;;;;10.74;66.91;101758.00;4957011;28;97193;-83
2022/11/13 02:25:52;;;;;;;21.10;14.77;;;;;;;10.69;66.87;101757.19;4969181;28;97102;-84
2022/11/13 02:28:36;;;;;;;22.35;15.13;;;;;;;10.66;66.65;101750.19;4968694;28;97096;-85
2022/11/13 02:31:20;;;;;;;21.10;15.38;;;;;;;10.69;66.34;101749.28;4957126;28;97004;-85
2022/11/13 02:34:04;;;;;;;22.05;14.98;;;;;;;10.72;66.56;101747.50;4953273;28;96717;-84
2022/11/13 02:36:48;;;;;;;24.33;15.75;;;;;;;10.72;66.31;101739.63;4953943;28;97132;-84
2022/11/13 02:39:32;;;;;;;19.90;14.68;;;;;;;10.70;66.46;101736.13;4961021;28;97233;-83
2022/11/13 02:42:16;;;;;;;18.55;13.82;;;;;;;10.67;66.21;101723.03;4956051;28;96941;-84
2022/11/13 02:45:00;;;;;;;23.27;15.23;;;;;;;10.67;66.82;101712.53;4967610;28;97251;-86
2022/11/13 02:47:44;;;;;;;22.13;16.33;;;;;;;10.70;66.52;101719.50;4949013;28;97005;-84
2022/11/13 02:50:28;;;;;;;21.75;14.70;;;;;;;10.63;66.14;101718.72;4966100;28;97071;-84
2022/11/13 02:53:12;;;;;;;20.40;13.93;;;;;;;10.62;66.56;101717.88;4973802;28;97139;-84
2022/11/13 02:55:56;;;;;;;25.67;15.18;;;;;;;10.49;66.39;101702.25;4952920;28;96997;-84
2022/11/13 02:58:40;;;;;;;23.20;15.05;;;;;;;10.61;66.64;101707.38;4958606;28;97327;-84
2022/11/13 03:01:24;;;;;;;21.60;15.80;;;;;;;10.61;66.60;101713.47;4947180;28;97111;-84
2022/11/13 03:04:08;;;;;;;21.88;15.63;;;;;;;10.61;66.46;101707.38;4963770;28;96702;-84
2022/11/13 03:06:52;;;;;;;18.38;14.63;;;;;;;10.62;66.35;101696.84;4956508;28;96759;-83
2022/11/13 03:09:36;;;;;;;20.25;14.50;;;;;;;10.64;66.60;101712.56;4973136;28;97114;-84
2022/11/13 03:12:20;;;;;;;25.33;16.30;;;;;;;10.54;66.61;101679.47;4956457;28;97436;-83
2022/11/13 03:15:05;;;;;;;22.17;15.63;;;;;;;10.60;66.54;101689.88;4956457;28;96838;-83
2022/11/13 03:17:49;;;;;;;22.55;15.77;;;;;;;10.63;66.30;101695.97;4956443;28;96753;-84
2022/11/13 03:20:35;;;;;;;21.55;15.75;;;;;;;10.65;66.38;101688.06;4972365;28;97139;-84
2022/11/13 03:23:19;;;;;;;21.88;16.02;;;;;;;10.67;66.01;101691.53;4975756;28;97076;-83
2022/11/13 03:26:09;;;;;;;21.95;15.88;;;;;;;10.62;66.32;101686.34;4958173;28;96951;-84
2022/11/13 03:28:53;;;;;;;20.95;15.43;;;;;;;10.58;65.81;101679.38;4959798;28;98073;-82
2022/11/13 03:31:37;;;;;;;20.95;14.00;;;;;;;10.60;65.83;101677.63;4954185;28;97171;-85
2022/11/13 03:34:21;;;;;;;22.13;15.80;;;;;;;10.60;65.97;101684.63;4960857;28;97069;-85
2022/11/13 03:37:05;;;;;;;18.85;14.75;;;;;;;10.63;65.81;101688.06;4975629;28;96875;-84
2022/11/13 03:39:49;;;;;;;21.27;15.45;;;;;;;10.64;65.60;101681.06;4956894;28;96806;-83
2022/11/13 03:42:33;;;;;;;20.30;14.48;;;;;;;10.42;65.89;101651.59;4956721;28;97086;-84
2022/11/13 03:45:18;;;;;;;21.00;15.07;;;;;;;10.60;66.14;101682.00;4959525;28;97048;-83
2022/11/13 03:48:02;;;;;;;22.70;15.32;;;;;;;10.57;65.92;101668.91;4946306;28;97180;-84
2022/11/13 03:50:50;;;;;;;22.70;16.25;;;;;;;10.58;66.13;101682.00;4953040;28;97628;-84
2022/11/13 03:53:34;;;;;;;19.70;14.75;;;;;;;10.60;65.92;101668.88;4958444;28;97333;-85
2022/11/13 03:56:18;;;;;;;23.15;14.95;;;;;;;10.58;65.72;101674.13;4975823;28;97071;-84
2022/11/13 03:59:02;;;;;;;20.30;15.13;;;;;;;10.57;65.75;101675.03;4997969;28;97105;-84
2022/11/13 04:01:46;;;;;;;20.83;14.77;;;;;;;10.44;66.09;101644.56;4946637;28;96782;-85
2022/11/13 04:04:30;;;;;;;19.88;15.73;;;;;;;10.46;65.86;101655.91;4976858;28;97153;-84
2022/11/13 04:07:14;;;;;;;22.52;16.60;;;;;;;10.56;66.04;101675.94;4972566;28;96956;-84
2022/11/13 04:09:58;;;;;;;21.45;16.30;;;;;;;10.58;65.79;101671.50;4982697;28;97629;-85
2022/11/13 04:12:42;;;;;;;23.30;15.95;;;;;;;10.56;65.87;101675.03;4958895;28;97418;-83
2022/11/13 04:15:26;;;;;;;20.83;16.02;;;;;;;10.54;65.68;101671.56;4964096;28;97161;-84
2022/11/13 04:18:10;;;;;;;21.13;15.95;;;;;;;10.49;66.15;101681.25;4958397;28;97464;-84
2022/11/13 04:21:02;;;;;;;22.13;16.80;;;;;;;10.47;65.80;101673.41;4958582;28;97136;-83
2022/11/13 04:23:46;;;;;;;21.85;16.65;;;;;;;10.48;65.85;101680.41;4958160;28;96800;-86
2022/11/13 04:26:30;;;;;;;19.88;15.88;;;;;;;10.48;66.26;101680.41;4965531;28;97307;-84
2022/11/13 04:29:14;;;;;;;20.55;16.00;;;;;;;10.42;66.26;101675.22;4958397;28;97119;-83
2022/11/13 04:31:58;;;;;;;23.00;16.27;;;;;;;10.45;66.61;101680.44;4958518;28;96708;-85
2022/11/13 04:34:42;;;;;;;24.63;17.88;;;;;;;10.49;65.95;101684.75;4958758;28;97494;-84
2022/11/13 04:37:26;;;;;;;22.42;16.80;;;;;;;10.50;66.04;101685.63;4971864;28;97604;-84
2022/11/13 04:40:10;;;;;;;25.05;18.85;;;;;;;10.52;66.04;101678.59;4957775;28;97491;-84
2022/11/13 04:42:55;;;;;;;29.45;19.20;;;;;;;10.38;65.84;101660.38;4963254;28;97361;-84
2022/11/13 04:45:38;;;;;;;26.00;19.55;;;;;;;10.46;66.37;101674.28;4953129;28;96941;-84
2022/11/13 04:48:22;;;;;;;24.25;18.73;;;;;;;10.48;66.33;101676.91;4957881;28;97552;-84
2022/11/13 04:51:06;;;;;;;25.05;18.13;;;;;;;10.40;66.11;101666.50;4974853;28;97039;-84
2022/11/13 04:53:50;;;;;;;21.70;17.90;;;;;;;10.46;65.95;101683.94;4961750;28;96645;-84
2022/11/13 04:56:34;;;;;;;25.80;19.00;;;;;;;10.44;66.50;101686.56;4968305;28;96772;-84
2022/11/13 04:59:18;;;;;;;28.02;19.65;;;;;;;10.47;66.14;101686.53;4944659;28;97265;-84
2022/11/13 05:02:02;;;;;;;24.17;18.77;;;;;;;10.51;65.93;101685.59;4963909;28;97856;-85
2022/11/13 05:04:46;;;;;;;27.83;20.73;;;;;;;10.42;65.97;101675.22;4944890;28;97466;-88
2022/11/13 05:07:31;;;;;;;27.48;19.33;;;;;;;10.41;66.32;101684.88;4972411;28;96668;-84
2022/11/13 05:10:15;;;;;;;28.42;20.15;;;;;;;10.41;66.44;101681.34;4974689;28;97107;-84
2022/11/13 05:12:59;;;;;;;26.27;20.10;;;;;;;10.41;66.30;101690.13;4972743;28;97573;-84
2022/11/13 05:15:43;;;;;;;25.95;18.23;;;;;;;10.42;66.62;101690.97;4954516;28;97604;-84
2022/11/13 05:18:27;;;;;;;27.95;20.25;;;;;;;10.47;66.09;101686.53;4970806;28;97307;-84
2022/11/13 05:21:11;;;;;;;28.83;19.17;;;;;;;10.41;66.46;101687.50;4956674;28;97510;-84
2022/11/13 05:23:55;;;;;;;32.03;22.00;;;;;;;10.39;66.69;101684.00;4956961;28;97056;-84
2022/11/13 05:26:39;;;;;;;28.70;20.67;;;;;;;10.35;66.16;101674.41;4975020;28;96610;-85
2022/11/13 05:29:23;;;;;;;28.42;20.33;;;;;;;10.45;66.27;101687.44;4978940;28;96950;-85
2022/11/13 05:32:07;;;;;;;30.38;20.52;;;;;;;10.39;66.81;101686.63;4970212;28;97253;-84
2022/11/13 05:34:51;;;;;;;27.30;19.98;;;;;;;10.41;66.64;101687.50;4970710;28;97299;-87
2022/11/13 05:37:35;;;;;;;25.13;19.25;;;;;;;10.38;66.95;101678.75;4971883;28;97874;-84
2022/11/13 05:40:19;;;;;;;25.17;19.33;;;;;;;10.33;66.76;101672.72;4962243;28;96715;-84
2022/11/13 05:43:03;;;;;;;28.88;20.33;;;;;;;10.34;66.92;101671.81;4949341;28;97207;-85
2022/11/13 05:45:46;;;;;;;25.58;18.58;;;;;;;10.38;66.61;101671.78;4956726;28;97071;-87
2022/11/13 05:48:31;;;;;;;29.85;20.30;;;;;;;10.37;66.98;101679.66;4965321;28;96689;-84
2022/11/13 05:51:23;;;;;;;27.08;20.58;;;;;;;10.36;66.73;101670.06;4965062;28;97664;-84
2022/11/13 05:54:08;;;;;;;29.08;20.02;;;;;;;10.37;66.90;101677.88;4981908;28;97222;-85
2022/11/13 05:56:52;;;;;;;28.73;21.00;;;;;;;10.38;67.03;101684.91;4972284;28;97426;-84
2022/11/13 05:59:35;;;;;;;29.15;21.20;;;;;;;10.35;66.58;101677.03;4956882;28;96988;-84
2022/11/13 06:02:19;;;;;;;28.13;20.92;;;;;;;10.30;66.79;101665.75;4957521;28;97101;-84
2022/11/13 06:05:04;;;;;;;33.80;22.63;;;;;;;10.30;67.07;101673.63;4962071;28;97254;-84
2022/11/13 06:07:48;;;;;;;30.65;21.65;;;;;;;10.15;67.57;101652.72;4969672;28;97616;-85
2022/11/13 06:10:32;;;;;;;33.20;23.20;;;;;;;10.21;67.12;101663.19;4959383;28;97687;-84
2022/11/13 06:13:16;;;;;;;33.83;23.33;;;;;;;10.14;67.63;101653.63;4955797;28;97357;-84
2022/11/13 06:16:07;;;;;;;30.33;22.80;;;;;;;10.21;67.41;101657.94;4956289;28;97084;-84
2022/11/13 06:18:57;;;;;;;31.15;23.15;;;;;;;10.20;67.98;101662.28;4969695;28;97724;-85
2022/11/13 06:21:41;;;;;;;34.90;24.27;;;;;;;10.15;67.90;101653.63;4952511;28;97051;-84
2022/11/13 06:24:25;;;;;;;34.03;24.20;;;;;;;10.24;67.81;101662.25;4952303;28;96840;-88
2022/11/13 06:27:09;;;;;;;34.38;24.80;;;;;;;10.21;67.99;101663.19;4970830;28;97192;-84
2022/11/13 06:29:54;;;;;;;36.90;25.80;;;;;;;10.10;68.43;101663.28;4968376;28;97153;-84
2022/11/13 06:32:38;;;;;;;36.65;24.17;;;;;;;10.08;68.27;101658.94;4951790;28;96903;-86
2022/11/13 06:35:22;;;;;;;34.70;24.67;;;;;;;10.12;68.32;101669.41;4956675;28;97333;-84
2022/11/13 06:38:06;;;;;;;35.83;24.67;;;;;;;10.09;68.07;101664.16;4956186;28;97121;-84
2022/11/13 06:40:50;;;;;;;36.85;25.10;;;;;;;10.11;68.34;101661.53;4953199;28;98144;-87
2022/11/13 06:43:34;;;;;;;38.13;26.05;;;;;;;10.10;68.50;101657.19;4973650;28;98143;-84
2022/11/13 06:46:20;;;;;;;36.58;24.90;;;;;;;9.98;68.32;101653.81;4970433;28;97166;-84
2022/11/13 06:49:05;;;;;;;36.08;24.95;;;;;;;10.04;68.19;101665.13;4956306;28;97165;-84
2022/11/13 06:51:48;;;;;;;34.05;25.10;;;;;;;10.00;68.50;101652.91;4969318;28;97543;-86
2022/11/13 06:54:32;;;;;;;31.75;25.08;;;;;;;10.02;68.75;101654.63;4969660;28;97723;-87
2022/11/13 06:57:16;;;;;;;34.08;25.20;;;;;;;10.04;68.58;101660.75;4959572;28;96728;-84
2022/11/13 07:00:00;;;;;;;35.65;26.10;;;;;;;10.01;68.64;101652.91;4970457;28;97417;-85
2022/11/13 07:02:48;;;;;;;35.60;25.23;;;;;;;9.98;69.06;101647.69;4987196;28;97129;-83
2022/11/13 07:05:35;;;;;;;34.13;25.55;;;;;;;9.98;68.47;101648.56;4959711;28;97243;-84
2022/11/13 07:08:19;;;;;;;33.30;25.90;;;;;;;10.00;68.56;101642.41;4956592;28;97188;-84
2022/11/13 07:11:03;;;;;;;31.58;24.35;;;;;;;10.00;68.39;101651.16;4971390;28;97752;-85
2022/11/13 07:13:48;;;;;;;35.83;24.48;;;;;;;9.94;68.48;101646.84;4965307;28;97359;-84
2022/11/13 07:16:31;;;;;;;37.88;25.63;;;;;;;9.89;68.38;101643.41;4958582;28;97326;-84
2022/11/13 07:19:15;;;;;;;40.20;26.00;;;;;;;9.90;68.97;101644.28;4960326;28;96876;-85
2022/11/13 07:21:59;;;;;;;35.03;25.23;;;;;;;9.92;68.41;101642.50;4975480;28;97201;-84
2022/11/13 07:24:43;;;;;;;42.10;27.85;;;;;;;9.89;68.37;101634.66;4958156;28;97184;-89
2022/11/13 07:27:27;;;;;;;41.03;28.38;;;;;;;9.95;68.45;101645.09;4958805;28;97952;-82
2022/11/13 07:30:12;;;;;;;37.33;26.60;;;;;;;9.93;68.52;101642.47;4954398;28;97196;-83
2022/11/13 07:33:01;;;;;;;33.20;25.42;;;;;;;9.92;68.25;101646.00;4969559;28;97157;-84
2022/11/13 07:35:45;;;;;;;41.72;28.65;;;;;;;9.93;68.64;101649.50;4973580;28;96911;-83
2022/11/13 07:38:28;;;;;;;40.78;25.90;;;;;;;9.94;68.61;101640.72;4973306;28;96954;-82
2022/11/13 07:41:12;;;;;;;34.97;26.15;;;;;;;9.92;68.32;101639.91;4957714;28;97377;-82
2022/11/13 07:43:56;;;;;;;36.47;26.73;;;;;;;9.94;68.49;101638.09;4968347;28;97437;-83
2022/11/13 07:46:40;;;;;;;38.35;26.23;;;;;;;9.97;68.52;101630.19;4948547;28;97780;-82
2022/11/13 07:49:24;;;;;;;33.58;25.88;;;;;;;10.00;68.18;101639.78;4955801;28;97299;-82
2022/11/13 07:52:08;;;;;;;38.25;26.08;;;;;;;9.92;68.60;101637.28;4965945;28;97665;-82
2022/11/13 07:54:52;;;;;;;36.17;27.17;;;;;;;9.91;68.17;101639.00;4962727;28;97177;-86
2022/11/13 07:57:36;;;;;;;39.83;26.60;;;;;;;9.97;68.35;101638.94;4968536;28;97274;-82
2022/11/13 08:00:20;;;;;;;37.10;27.08;;;;;;;9.96;68.17;101624.09;4963898;28;97246;-82
2022/11/13 08:03:12;;;;;;;37.35;26.50;;;;;;;10.03;68.01;101637.13;4973680;28;97044;-82
2022/11/13 08:06:04;;;;;;;38.28;27.48;;;;;;;10.11;67.89;101643.16;4954368;28;97197;-83
2022/11/13 08:08:48;;;;;;;;;;;;;;;10.10;67.73;101644.94;4968298;28;97191;-83
2022/11/13 08:11:33;;;;;;;37.67;25.35;;;;;;;10.19;67.44;101642.19;4963268;28;97355;-83
2022/11/13 08:14:17;;;;;;;38.40;25.92;;;;;;;10.17;67.67;101628.22;4957449;28;96784;-84
2022/11/13 08:17:01;;;;;;;41.10;26.60;;;;;;;10.07;67.38;101636.22;4972970;28;97349;-85
2022/11/13 08:19:45;;;;;;;39.88;27.05;;;;;;;9.96;67.90;101633.72;4965814;28;97100;-84
2022/11/13 08:22:30;;;;;;;39.78;27.75;;;;;;;10.10;67.67;101637.06;4968867;28;97479;-85
2022/11/13 08:25:14;;;;;;;38.50;27.60;;;;;;;10.12;67.59;101642.28;4968831;28;97600;-85
2022/11/13 08:27:58;;;;;;;42.22;27.65;;;;;;;10.10;67.96;101636.19;4955122;28;97257;-85
2022/11/13 08:30:43;;;;;;;39.33;27.83;;;;;;;10.12;67.79;101637.94;4964982;28;97164;-85
2022/11/13 08:33:28;;;;;;;39.88;27.77;;;;;;;10.17;67.90;101620.34;4956813;28;97310;-85
2022/11/13 08:36:12;;;;;;;42.10;28.50;;;;;;;10.27;67.09;101636.00;4986042;28;97048;-85
2022/11/13 08:38:56;;;;;;;40.08;27.75;;;;;;;10.27;67.47;101631.66;4956871;28;97183;-85
2022/11/13 08:41:40;;;;;;;42.38;28.23;;;;;;;10.37;67.14;101635.03;4975684;28;97100;-82
2022/11/13 08:44:24;;;;;;;40.42;27.25;;;;;;;10.43;67.15;101629.69;4956262;28;96956;-84
2022/11/13 08:47:08;;;;;;;42.75;26.98;;;;;;;10.47;66.83;101635.78;4959077;28;97170;-86
2022/11/13 08:49:51;;;;;;;38.78;26.58;;;;;;;10.49;66.97;101641.88;4971032;28;97348;-84
2022/11/13 08:52:35;;;;;;;43.97;28.25;;;;;;;10.53;66.70;101638.31;4972055;28;97069;-85
2022/11/13 08:55:19;;;;;;;43.50;28.90;;;;;;;10.55;66.77;101642.66;4958276;28;97024;-82
2022/11/13 08:58:03;;;;;;;46.30;29.45;;;;;;;10.56;66.81;101644.41;4974583;28;98041;-85
2022/11/13 09:00:48;;;;;;;44.75;28.35;;;;;;;10.57;66.51;101638.28;4963347;28;98127;-83
2022/11/13 09:03:34;;;;;;;40.95;28.13;;;;;;;10.64;66.06;101641.66;4952188;28;97675;-82
2022/11/13 09:06:18;;;;;;;44.63;29.00;;;;;;;10.62;65.80;101643.47;4971494;28;96953;-83
2022/11/13 09:09:05;;;;;;;45.00;30.23;;;;;;;10.58;65.83;101629.50;4974153;28;96760;-81
2022/11/13 09:11:50;;;;;;;40.08;28.55;;;;;;;10.55;65.73;101631.28;4957072;28;97715;-82
2022/11/13 09:14:35;;;;;;;46.80;30.73;;;;;;;10.59;65.70;101636.50;4974321;28;97843;-82
2022/11/13 09:17:19;;;;;;;42.05;28.20;;;;;;;10.59;65.94;101651.41;4974245;28;97227;-84
2022/11/13 09:20:05;;;;;;;42.45;28.67;;;;;;;10.56;66.11;101648.78;4969726;28;97124;-80
2022/11/13 09:22:57;;;;;;;49.55;32.08;;;;;;;10.44;66.44;101652.44;4984684;28;97222;-79
2022/11/13 09:25:41;;;;;;;47.22;31.73;;;;;;;10.39;66.53;101647.25;4975218;28;97127;-81
2022/11/13 09:28:25;;;;;;;50.70;34.75;;;;;;;10.28;66.73;101643.88;4974971;28;97072;-82
2022/11/13 09:31:09;;;;;;;49.42;34.40;;;;;;;10.40;66.60;101653.38;4970962;28;97117;-82
2022/11/13 09:33:53;;;;;;;57.45;37.42;;;;;;;10.42;66.74;101647.22;4980322;28;97319;-81
2022/11/13 09:36:38;;;;;;;54.95;38.35;;;;;;;10.28;66.86;101656.13;4985638;28;97576;-79
2022/11/13 09:39:22;;;;;;;54.10;37.63;;;;;;;10.25;66.94;101649.13;4970164;28;97362;-80
2022/11/13 09:42:15;;;;;;;49.60;35.88;;;;;;;10.26;67.17;101653.47;4956941;28;96840;-88
2022/11/13 09:45:09;;;;;;;54.88;37.15;;;;;;;10.24;67.03;101651.75;4971611;28;97115;-87
2022/11/13 09:47:54;;;;;;;55.17;37.28;;;;;;;10.28;66.57;101651.75;4957334;28;97943;-81
2022/11/13 09:50:38;;;;;;;59.42;38.83;;;;;;;10.28;66.78;101659.63;4958629;28;97573;-88
2022/11/13 09:53:24;;;;;;;63.58;41.25;;;;;;;10.25;66.73;101645.66;4974290;28;96776;-88
2022/11/13 09:56:27;;;;;;;59.60;41.33;;;;;;;10.22;66.94;101651.78;4975058;28;97168;-92
2022/11/13 09:59:21;;;;;;;61.22;40.67;;;;;;;10.17;66.52;101646.59;4963823;28;97277;-93
2022/11/13 10:02:30;;;;;;;53.17;36.92;;;;;;;10.18;66.69;101656.22;4970806;28;97621;-89
2022/11/13 10:05:56;;;;;;;54.92;33.53;;;;;;;10.11;67.01;101651.03;4974353;28;96741;-87
2022/11/13 10:08:46;;;;;;;46.33;30.38;;;;;;;9.99;67.08;101628.44;4949823;28;97684;-85
2022/11/13 10:11:41;;;;;;;46.38;31.23;;;;;;;10.13;66.70;101646.66;4955417;28;97643;-84
2022/11/13 10:14:31;;;;;;;52.25;31.95;;;;;;;10.16;66.55;101654.50;4957052;28;97181;-84
2022/11/13 10:17:34;;;;;;;44.22;30.30;;;;;;;9.93;66.41;101633.75;4956092;28;97217;-85
2022/11/13 10:20:31;;;;;;;48.80;31.80;;;;;;;10.01;66.72;101647.66;4954036;28;97070;-84
2022/11/13 10:23:25;;;;;;;46.65;30.92;;;;;;;10.08;66.72;101640.59;4966157;28;97371;-81
2022/11/13 10:26:19;;;;;;;51.90;32.58;;;;;;;10.15;66.66;101639.63;4959305;28;97577;-82
2022/11/13 10:29:15;;;;;;;52.95;32.85;;;;;;;10.19;66.54;101638.72;4953856;28;96877;-80
2022/11/13 10:32:29;;;;;;;48.78;32.35;;;;;;;10.17;66.67;101643.97;4972832;28;97211;-84
2022/11/13 10:35:32;;;;;;;51.40;32.67;;;;;;;10.09;66.94;101647.56;4971029;28;97130;-83
2022/11/13 10:38:41;;;;;;;47.10;30.60;;;;;;;10.03;67.00;101637.13;4983793;28;96901;-84
2022/11/13 10:41:26;;;;;;;45.25;28.63;;;;;;;10.02;66.75;101635.41;4998449;28;96876;-84
2022/11/13 10:44:25;;;;;;;49.30;30.48;;;;;;;9.96;66.53;101631.09;4958439;28;97131;-83
2022/11/13 10:47:17;;;;;;;46.42;29.90;;;;;;;9.92;66.65;101632.03;4964631;28;97146;-82
2022/11/13 10:50:28;;;;;;;46.33;30.67;;;;;;;9.86;66.97;101632.97;4967945;28;97261;-82
2022/11/13 10:53:14;;;;;;;47.95;29.00;;;;;;;9.85;67.08;101635.56;4969954;28;97453;-83
2022/11/13 10:55:59;;;;;;;42.47;29.13;;;;;;;9.72;67.36;101629.59;4986187;28;97326;-83
2022/11/13 10:58:43;;;;;;;44.90;29.13;;;;;;;9.67;67.23;101613.91;4972294;28;97328;-82
2022/11/13 11:01:27;;;;;;;48.05;30.33;;;;;;;9.66;67.81;101619.16;4970593;28;97264;-82
2022/11/13 11:04:31;;;;;;;49.75;31.02;;;;;;;9.51;68.11;101610.56;4973723;28;96965;-83
2022/11/13 11:07:17;;;;;;;46.17;30.42;;;;;;;9.62;67.45;101620.94;4955602;28;97062;-83
2022/11/13 11:10:01;;;;;;;55.13;35.30;;;;;;;9.61;67.90;101619.22;4971916;28;97135;-83
2022/11/13 11:12:56;;;;;;;56.10;33.67;;;;;;;9.61;67.97;101615.72;4972510;28;97215;-83
2022/11/13 11:15:47;;;;;;;54.03;33.63;;;;;;;9.62;68.01;101618.31;4967787;28;97357;-83
2022/11/13 11:18:43;;;;;;;58.83;33.38;;;;;;;9.65;67.65;101615.66;4971301;28;97664;-83
2022/11/13 11:21:33;;;;;;;52.33;32.72;;;;;;;9.63;67.63;101613.94;4966993;28;97480;-86
2022/11/13 11:24:23;;;;;;;54.25;33.25;;;;;;;9.56;67.71;101592.16;4959976;28;97312;-80
2022/11/13 11:27:12;;;;;;;54.03;35.00;;;;;;;9.67;67.87;101597.31;4985471;28;97323;-81
2022/11/13 11:30:05;;;;;;;54.22;32.60;;;;;;;9.55;67.85;101589.56;4969451;28;97219;-82
2022/11/13 11:33:12;;;;;;;57.50;35.85;;;;;;;9.54;68.35;101593.94;4964794;28;97064;-82
2022/11/13 11:36:12;;;;;;;55.75;35.30;;;;;;;9.42;68.51;101588.78;4993597;28;97749;-83
2022/11/13 11:39:03;;;;;;;54.58;34.58;;;;;;;9.48;68.43;101580.88;4957358;28;97023;-83
2022/11/13 11:41:54;;;;;;;58.08;35.47;;;;;;;9.51;68.14;101581.72;4969942;28;98260;-83
2022/11/13 11:44:42;;;;;;;51.40;33.90;;;;;;;9.37;68.98;101559.16;4951466;28;97152;-85
2022/11/13 11:47:26;;;;;;;57.90;35.85;;;;;;;9.49;68.47;101578.25;4970077;28;97133;-83
2022/11/13 11:50:16;;;;;;;57.33;34.35;;;;;;;9.41;68.31;101555.63;4954726;28;97920;-86
2022/11/13 11:53:06;;;;;;;54.65;33.42;;;;;;;9.54;68.14;101578.22;4976415;28;97554;-79
2022/11/13 11:56:09;;;;;;;54.47;33.85;;;;;;;9.55;68.20;101571.22;4956269;28;97141;-85
2022/11/13 11:58:59;;;;;;;57.03;34.60;;;;;;;9.53;68.17;101561.59;4972618;28;97248;-86
2022/11/13 12:02:02;;;;;;;56.55;34.20;;;;;;;9.50;68.47;101550.28;4974379;28;96724;-84
2022/11/13 12:05:08;;;;;;;55.45;34.67;;;;;;;9.56;68.30;101565.06;4981525;28;97126;-82
2022/11/13 12:07:56;;;;;;;55.38;33.95;;;;;;;9.55;67.92;101558.97;4970196;28;97252;-83
2022/11/13 12:10:51;;;;;;;62.05;34.97;;;;;;;9.56;68.01;101550.22;4965330;28;97227;-82
2022/11/13 12:13:51;;;;;;;62.42;35.58;;;;;;;9.47;68.14;101545.94;4970628;28;96876;-81
2022/11/13 12:17:02;;;;;;;62.80;36.63;;;;;;;9.44;67.98;101539.84;4971501;28;97223;-84
2022/11/13 12:20:25;;;;;;;59.80;35.38;;;;;;;9.37;68.47;101541.69;4953470;28;97480;-82
2022/11/13 12:23:27;;;;;;;63.05;37.00;;;;;;;9.41;68.25;101540.75;4952720;28;97467;-82
2022/11/13 12:26:15;;;;;;;72.28;38.55;;;;;;;9.37;68.45;101533.81;4968286;28;97135;-83
2022/11/13 12:29:06;;;;;;;72.63;38.20;;;;;;;9.39;68.78;101533.78;4969598;28;97172;-81
2022/11/13 12:32:11;;;;;;;76.15;40.17;;;;;;;9.38;68.86;101526.81;4967806;28;97666;-83
2022/11/13 12:35:03;;;;;;;67.40;40.00;;;;;;;9.26;69.23;101520.81;4950296;28;97145;-85
2022/11/13 12:37:54;;;;;;;67.40;39.53;;;;;;;9.29;68.89;101509.44;4970556;28;97592;-80
2022/11/13 12:40:53;;;;;;;73.18;41.72;;;;;;;9.42;68.84;101524.13;4970851;28;96762;-84